sensor_id;sensor_type;location;lat;lon;timestamp;P1;durP1;ratioP1;P2;durP2;ratioP2
7166;SDS011;3625;51.762;14.320;2023-04-25T00:01:45;4.50;;;4.10;;
7166;SDS011;3625;51.762;14.320;2023-04-25T00:04:15;4.00;;;3.70;;
7166;SDS011;3625;51.762;14.320;2023-04-25T00:06:44;4.90;;;3.77;;
7166;SDS011;3625;51.762;14.320;2023-04-25T00:09:12;3.95;;;3.65;;
7166;SDS011;3625;51.762;14.320;2023-04-25T00:11:41;4.43;;;4.10;;
7166;SDS011;3625;51.762;14.320;2023-04-25T00:14:11;4.60;;;4.10;;
7166;SDS011;3625;51.762;14.320;2023-04-25T00:16:40;4.30;;;3.97;;
7166;SDS011;3625;51.762;14.320;2023-04-25T00:19:10;4.60;;;4.20;;
7166;SDS011;3625;51.762;14.320;2023-04-25T00:21:40;4.40;;;4.10;;
7166;SDS011;3625;51.762;14.320;2023-04-25T00:24:09;4.60;;;4.20;;
7166;SDS011;3625;51.762;14.320;2023-04-25T00:26:38;5.73;;;4.47;;
7166;SDS011;3625;51.762;14.320;2023-04-25T00:29:08;4.90;;;4.50;;
7166;SDS011;3625;51.762;14.320;2023-04-25T00:31:37;5.60;;;4.15;;
7166;SDS011;3625;51.762;14.320;2023-04-25T00:34:06;5.57;;;5.00;;
7166;SDS011;3625;51.762;14.320;2023-04-25T00:36:35;5.80;;;5.20;;
7166;SDS011;3625;51.762;14.320;2023-04-25T00:39:04;5.37;;;4.83;;
7166;SDS011;3625;51.762;14.320;2023-04-25T00:41:33;5.37;;;4.87;;
7166;SDS011;3625;51.762;14.320;2023-04-25T00:44:03;5.13;;;4.70;;
7166;SDS011;3625;51.762;14.320;2023-04-25T00:46:34;4.83;;;4.33;;
7166;SDS011;3625;51.762;14.320;2023-04-25T00:49:04;5.97;;;4.60;;
7166;SDS011;3625;51.762;14.320;2023-04-25T00:51:33;6.10;;;5.10;;
7166;SDS011;3625;51.762;14.320;2023-04-25T00:54:02;5.50;;;5.00;;
7166;SDS011;3625;51.762;14.320;2023-04-25T00:56:31;6.03;;;4.97;;
7166;SDS011;3625;51.762;14.320;2023-04-25T00:59:00;5.37;;;4.87;;
7166;SDS011;3625;51.762;14.320;2023-04-25T01:01:29;5.17;;;4.70;;
7166;SDS011;3625;51.762;14.320;2023-04-25T01:03:59;5.80;;;5.20;;
7166;SDS011;3625;51.762;14.320;2023-04-25T01:06:29;4.90;;;4.47;;
7166;SDS011;3625;51.762;14.320;2023-04-25T01:08:59;6.80;;;5.80;;
7166;SDS011;3625;51.762;14.320;2023-04-25T01:11:29;7.50;;;4.90;;
7166;SDS011;3625;51.762;14.320;2023-04-25T01:13:57;6.07;;;4.70;;
7166;SDS011;3625;51.762;14.320;2023-04-25T01:16:27;7.17;;;5.73;;
7166;SDS011;3625;51.762;14.320;2023-04-25T01:18:56;5.43;;;4.70;;
7166;SDS011;3625;51.762;14.320;2023-04-25T01:21:26;5.03;;;4.60;;
7166;SDS011;3625;51.762;14.320;2023-04-25T01:23:56;5.30;;;4.40;;
7166;SDS011;3625;51.762;14.320;2023-04-25T01:26:25;7.03;;;5.63;;
7166;SDS011;3625;51.762;14.320;2023-04-25T01:28:54;5.90;;;5.40;;
7166;SDS011;3625;51.762;14.320;2023-04-25T01:31:24;5.20;;;4.70;;
7166;SDS011;3625;51.762;14.320;2023-04-25T01:33:53;6.45;;;5.40;;
7166;SDS011;3625;51.762;14.320;2023-04-25T01:36:22;5.90;;;5.30;;
7166;SDS011;3625;51.762;14.320;2023-04-25T01:38:52;5.90;;;5.30;;
7166;SDS011;3625;51.762;14.320;2023-04-25T01:41:22;6.60;;;5.90;;
7166;SDS011;3625;51.762;14.320;2023-04-25T01:43:51;7.60;;;5.53;;
7166;SDS011;3625;51.762;14.320;2023-04-25T01:46:20;7.80;;;5.90;;
7166;SDS011;3625;51.762;14.320;2023-04-25T01:48:48;6.57;;;5.90;;
7166;SDS011;3625;51.762;14.320;2023-04-25T01:51:17;6.95;;;5.50;;
7166;SDS011;3625;51.762;14.320;2023-04-25T01:53:46;8.47;;;6.17;;
7166;SDS011;3625;51.762;14.320;2023-04-25T01:56:18;6.10;;;5.50;;
7166;SDS011;3625;51.762;14.320;2023-04-25T01:58:47;7.10;;;6.40;;
7166;SDS011;3625;51.762;14.320;2023-04-25T02:01:18;6.03;;;5.43;;
7166;SDS011;3625;51.762;14.320;2023-04-25T02:04:04;5.97;;;5.47;;
7166;SDS011;3625;51.762;14.320;2023-04-25T02:06:35;6.60;;;5.87;;
7166;SDS011;3625;51.762;14.320;2023-04-25T02:09:05;7.25;;;6.00;;
7166;SDS011;3625;51.762;14.320;2023-04-25T02:11:41;6.33;;;5.70;;
7166;SDS011;3625;51.762;14.320;2023-04-25T02:14:26;6.70;;;6.05;;
7166;SDS011;3625;51.762;14.320;2023-04-25T02:17:03;7.67;;;6.07;;
7166;SDS011;3625;51.762;14.320;2023-04-25T02:19:32;6.90;;;5.73;;
7166;SDS011;3625;51.762;14.320;2023-04-25T02:22:01;7.10;;;6.17;;
7166;SDS011;3625;51.762;14.320;2023-04-25T02:24:30;7.17;;;6.20;;
7166;SDS011;3625;51.762;14.320;2023-04-25T02:27:01;7.13;;;5.90;;
7166;SDS011;3625;51.762;14.320;2023-04-25T02:29:30;6.77;;;6.00;;
7166;SDS011;3625;51.762;14.320;2023-04-25T02:31:59;6.00;;;5.40;;
7166;SDS011;3625;51.762;14.320;2023-04-25T02:34:28;7.37;;;5.90;;
7166;SDS011;3625;51.762;14.320;2023-04-25T02:36:59;7.77;;;5.73;;
7166;SDS011;3625;51.762;14.320;2023-04-25T02:39:28;6.37;;;5.77;;
7166;SDS011;3625;51.762;14.320;2023-04-25T02:41:57;6.70;;;5.53;;
7166;SDS011;3625;51.762;14.320;2023-04-25T02:44:30;5.70;;;5.20;;
7166;SDS011;3625;51.762;14.320;2023-04-25T02:46:58;5.87;;;5.33;;
7166;SDS011;3625;51.762;14.320;2023-04-25T02:49:27;5.33;;;4.83;;
7166;SDS011;3625;51.762;14.320;2023-04-25T02:51:56;6.20;;;5.60;;
7166;SDS011;3625;51.762;14.320;2023-04-25T02:54:25;6.60;;;5.90;;
7166;SDS011;3625;51.762;14.320;2023-04-25T02:56:55;6.93;;;6.20;;
7166;SDS011;3625;51.762;14.320;2023-04-25T02:59:29;7.73;;;6.40;;
7166;SDS011;3625;51.762;14.320;2023-04-25T03:01:58;6.23;;;5.53;;
7166;SDS011;3625;51.762;14.320;2023-04-25T03:04:27;7.87;;;5.73;;
7166;SDS011;3625;51.762;14.320;2023-04-25T03:06:56;6.43;;;5.23;;
7166;SDS011;3625;51.762;14.320;2023-04-25T03:09:25;7.03;;;5.63;;
7166;SDS011;3625;51.762;14.320;2023-04-25T03:11:54;6.17;;;5.57;;
7166;SDS011;3625;51.762;14.320;2023-04-25T03:14:22;6.07;;;5.57;;
7166;SDS011;3625;51.762;14.320;2023-04-25T03:16:53;7.33;;;5.43;;
7166;SDS011;3625;51.762;14.320;2023-04-25T03:19:22;6.07;;;5.10;;
7166;SDS011;3625;51.762;14.320;2023-04-25T03:21:50;6.33;;;5.30;;
7166;SDS011;3625;51.762;14.320;2023-04-25T03:24:20;5.63;;;5.03;;
7166;SDS011;3625;51.762;14.320;2023-04-25T03:26:49;7.90;;;5.27;;
7166;SDS011;3625;51.762;14.320;2023-04-25T03:29:18;5.60;;;5.07;;
7166;SDS011;3625;51.762;14.320;2023-04-25T03:31:55;5.53;;;4.63;;
7166;SDS011;3625;51.762;14.320;2023-04-25T03:34:24;5.90;;;5.23;;
7166;SDS011;3625;51.762;14.320;2023-04-25T03:36:53;5.50;;;5.00;;
7166;SDS011;3625;51.762;14.320;2023-04-25T03:39:22;6.47;;;5.87;;
7166;SDS011;3625;51.762;14.320;2023-04-25T03:41:52;5.53;;;4.97;;
7166;SDS011;3625;51.762;14.320;2023-04-25T03:44:21;5.80;;;5.10;;
7166;SDS011;3625;51.762;14.320;2023-04-25T03:46:52;7.87;;;5.10;;
7166;SDS011;3625;51.762;14.320;2023-04-25T03:49:23;5.53;;;4.70;;
7166;SDS011;3625;51.762;14.320;2023-04-25T03:51:57;5.90;;;5.27;;
7166;SDS011;3625;51.762;14.320;2023-04-25T03:54:29;5.17;;;4.63;;
7166;SDS011;3625;51.762;14.320;2023-04-25T03:57:04;5.93;;;5.27;;
7166;SDS011;3625;51.762;14.320;2023-04-25T03:59:36;5.50;;;5.10;;
7166;SDS011;3625;51.762;14.320;2023-04-25T04:02:09;7.87;;;5.07;;
7166;SDS011;3625;51.762;14.320;2023-04-25T04:04:39;6.87;;;5.13;;
7166;SDS011;3625;51.762;14.320;2023-04-25T04:07:11;5.93;;;5.43;;
7166;SDS011;3625;51.762;14.320;2023-04-25T04:09:42;6.30;;;5.40;;
7166;SDS011;3625;51.762;14.320;2023-04-25T04:12:17;5.93;;;5.20;;
7166;SDS011;3625;51.762;14.320;2023-04-25T04:14:46;6.73;;;5.17;;
7166;SDS011;3625;51.762;14.320;2023-04-25T04:17:16;5.37;;;4.87;;
7166;SDS011;3625;51.762;14.320;2023-04-25T04:19:45;7.03;;;5.30;;
7166;SDS011;3625;51.762;14.320;2023-04-25T04:22:17;6.10;;;5.23;;
7166;SDS011;3625;51.762;14.320;2023-04-25T04:24:47;6.80;;;6.10;;
7166;SDS011;3625;51.762;14.320;2023-04-25T04:27:22;6.10;;;5.60;;
7166;SDS011;3625;51.762;14.320;2023-04-25T04:30:06;6.20;;;5.40;;
7166;SDS011;3625;51.762;14.320;2023-04-25T04:32:53;6.07;;;5.47;;
7166;SDS011;3625;51.762;14.320;2023-04-25T04:35:22;7.43;;;5.17;;
7166;SDS011;3625;51.762;14.320;2023-04-25T04:37:51;6.03;;;5.43;;
7166;SDS011;3625;51.762;14.320;2023-04-25T04:40:26;6.57;;;4.93;;
7166;SDS011;3625;51.762;14.320;2023-04-25T04:43:19;6.43;;;5.63;;
7166;SDS011;3625;51.762;14.320;2023-04-25T04:46:01;6.73;;;6.10;;
7166;SDS011;3625;51.762;14.320;2023-04-25T04:48:32;6.63;;;5.77;;
7166;SDS011;3625;51.762;14.320;2023-04-25T04:51:22;7.50;;;5.40;;
7166;SDS011;3625;51.762;14.320;2023-04-25T04:53:53;7.23;;;5.70;;
7166;SDS011;3625;51.762;14.320;2023-04-25T04:56:47;6.43;;;5.77;;
7166;SDS011;3625;51.762;14.320;2023-04-25T04:59:27;5.93;;;5.43;;
7166;SDS011;3625;51.762;14.320;2023-04-25T05:02:07;5.87;;;5.37;;
7166;SDS011;3625;51.762;14.320;2023-04-25T05:04:50;7.60;;;6.27;;
7166;SDS011;3625;51.762;14.320;2023-04-25T05:07:38;9.37;;;6.20;;
7166;SDS011;3625;51.762;14.320;2023-04-25T05:10:25;6.13;;;5.53;;
7166;SDS011;3625;51.762;14.320;2023-04-25T05:13:12;6.23;;;5.57;;
7166;SDS011;3625;51.762;14.320;2023-04-25T05:16:03;6.30;;;5.70;;
7166;SDS011;3625;51.762;14.320;2023-04-25T05:19:08;6.63;;;5.93;;
7166;SDS011;3625;51.762;14.320;2023-04-25T05:21:52;8.00;;;5.80;;
7166;SDS011;3625;51.762;14.320;2023-04-25T05:24:30;7.53;;;5.90;;
7166;SDS011;3625;51.762;14.320;2023-04-25T05:27:13;8.57;;;5.67;;
7166;SDS011;3625;51.762;14.320;2023-04-25T05:30:04;6.70;;;4.80;;
7166;SDS011;3625;51.762;14.320;2023-04-25T05:32:53;5.47;;;4.97;;
7166;SDS011;3625;51.762;14.320;2023-04-25T05:35:22;8.20;;;5.37;;
7166;SDS011;3625;51.762;14.320;2023-04-25T05:37:52;7.97;;;5.17;;
7166;SDS011;3625;51.762;14.320;2023-04-25T05:40:33;5.63;;;5.00;;
7166;SDS011;3625;51.762;14.320;2023-04-25T05:43:15;5.70;;;5.10;;
7166;SDS011;3625;51.762;14.320;2023-04-25T05:45:58;5.93;;;5.20;;
7166;SDS011;3625;51.762;14.320;2023-04-25T05:48:40;6.80;;;5.57;;
7166;SDS011;3625;51.762;14.320;2023-04-25T05:51:30;7.80;;;5.40;;
7166;SDS011;3625;51.762;14.320;2023-04-25T05:54:20;7.63;;;4.63;;
7166;SDS011;3625;51.762;14.320;2023-04-25T05:56:50;4.47;;;4.03;;
7166;SDS011;3625;51.762;14.320;2023-04-25T05:59:20;6.70;;;5.00;;
7166;SDS011;3625;51.762;14.320;2023-04-25T06:01:49;4.97;;;4.47;;
7166;SDS011;3625;51.762;14.320;2023-04-25T06:04:22;5.33;;;4.30;;
7166;SDS011;3625;51.762;14.320;2023-04-25T06:06:56;4.87;;;4.20;;
7166;SDS011;3625;51.762;14.320;2023-04-25T06:09:27;5.33;;;4.20;;
7166;SDS011;3625;51.762;14.320;2023-04-25T06:12:10;6.20;;;4.30;;
7166;SDS011;3625;51.762;14.320;2023-04-25T06:14:39;7.30;;;4.23;;
7166;SDS011;3625;51.762;14.320;2023-04-25T06:17:08;4.27;;;3.77;;
7166;SDS011;3625;51.762;14.320;2023-04-25T06:19:37;6.67;;;4.40;;
7166;SDS011;3625;51.762;14.320;2023-04-25T06:22:07;4.60;;;3.90;;
7166;SDS011;3625;51.762;14.320;2023-04-25T06:24:41;4.97;;;4.03;;
7166;SDS011;3625;51.762;14.320;2023-04-25T06:27:10;10.73;;;4.23;;
7166;SDS011;3625;51.762;14.320;2023-04-25T06:29:42;5.57;;;4.10;;
7166;SDS011;3625;51.762;14.320;2023-04-25T06:32:13;6.40;;;3.73;;
7166;SDS011;3625;51.762;14.320;2023-04-25T06:34:42;7.33;;;4.37;;
7166;SDS011;3625;51.762;14.320;2023-04-25T06:37:12;6.47;;;4.13;;
7166;SDS011;3625;51.762;14.320;2023-04-25T06:39:42;5.73;;;3.57;;
7166;SDS011;3625;51.762;14.320;2023-04-25T06:42:14;4.80;;;4.07;;
7166;SDS011;3625;51.762;14.320;2023-04-25T06:44:54;6.03;;;3.60;;
7166;SDS011;3625;51.762;14.320;2023-04-25T06:47:23;4.83;;;3.50;;
7166;SDS011;3625;51.762;14.320;2023-04-25T06:49:52;4.50;;;3.43;;
7166;SDS011;3625;51.762;14.320;2023-04-25T06:52:21;4.00;;;3.67;;
7166;SDS011;3625;51.762;14.320;2023-04-25T06:54:53;5.00;;;3.63;;
7166;SDS011;3625;51.762;14.320;2023-04-25T06:57:40;6.87;;;3.93;;
7166;SDS011;3625;51.762;14.320;2023-04-25T07:00:28;5.23;;;3.60;;
7166;SDS011;3625;51.762;14.320;2023-04-25T07:02:58;5.00;;;3.40;;
7166;SDS011;3625;51.762;14.320;2023-04-25T07:05:27;6.47;;;3.10;;
7166;SDS011;3625;51.762;14.320;2023-04-25T07:07:57;5.10;;;3.53;;
7166;SDS011;3625;51.762;14.320;2023-04-25T07:10:28;5.77;;;3.23;;
7166;SDS011;3625;51.762;14.320;2023-04-25T07:12:57;4.80;;;3.27;;
7166;SDS011;3625;51.762;14.320;2023-04-25T07:15:26;4.80;;;3.47;;
7166;SDS011;3625;51.762;14.320;2023-04-25T07:17:57;5.77;;;3.10;;
7166;SDS011;3625;51.762;14.320;2023-04-25T07:20:26;3.37;;;3.07;;
7166;SDS011;3625;51.762;14.320;2023-04-25T07:22:55;4.03;;;3.10;;
7166;SDS011;3625;51.762;14.320;2023-04-25T07:25:24;7.10;;;3.47;;
7166;SDS011;3625;51.762;14.320;2023-04-25T07:27:55;3.37;;;2.90;;
7166;SDS011;3625;51.762;14.320;2023-04-25T07:30:25;4.50;;;3.67;;
7166;SDS011;3625;51.762;14.320;2023-04-25T07:32:54;4.53;;;3.33;;
7166;SDS011;3625;51.762;14.320;2023-04-25T07:35:24;6.03;;;3.40;;
7166;SDS011;3625;51.762;14.320;2023-04-25T07:37:52;5.63;;;3.03;;
7166;SDS011;3625;51.762;14.320;2023-04-25T07:40:23;3.93;;;2.90;;
7166;SDS011;3625;51.762;14.320;2023-04-25T07:42:57;4.80;;;3.23;;
7166;SDS011;3625;51.762;14.320;2023-04-25T07:45:33;4.40;;;2.97;;
7166;SDS011;3625;51.762;14.320;2023-04-25T07:48:03;3.33;;;3.03;;
7166;SDS011;3625;51.762;14.320;2023-04-25T07:50:35;4.60;;;2.90;;
7166;SDS011;3625;51.762;14.320;2023-04-25T07:53:04;3.17;;;2.63;;
7166;SDS011;3625;51.762;14.320;2023-04-25T07:55:41;6.10;;;3.23;;
7166;SDS011;3625;51.762;14.320;2023-04-25T07:58:18;4.03;;;2.97;;
7166;SDS011;3625;51.762;14.320;2023-04-25T08:00:55;3.70;;;3.13;;
7166;SDS011;3625;51.762;14.320;2023-04-25T08:03:44;3.23;;;2.93;;
7166;SDS011;3625;51.762;14.320;2023-04-25T08:06:20;5.30;;;3.00;;
7166;SDS011;3625;51.762;14.320;2023-04-25T08:09:00;3.63;;;2.90;;
7166;SDS011;3625;51.762;14.320;2023-04-25T08:11:37;3.07;;;2.73;;
7166;SDS011;3625;51.762;14.320;2023-04-25T08:14:09;3.77;;;2.87;;
7166;SDS011;3625;51.762;14.320;2023-04-25T08:16:39;4.57;;;3.00;;
7166;SDS011;3625;51.762;14.320;2023-04-25T08:19:08;4.70;;;2.77;;
7166;SDS011;3625;51.762;14.320;2023-04-25T08:21:37;3.90;;;2.90;;
7166;SDS011;3625;51.762;14.320;2023-04-25T08:24:11;4.30;;;2.60;;
7166;SDS011;3625;51.762;14.320;2023-04-25T08:26:40;3.80;;;2.97;;
7166;SDS011;3625;51.762;14.320;2023-04-25T08:29:15;3.83;;;2.77;;
7166;SDS011;3625;51.762;14.320;2023-04-25T08:31:43;4.00;;;2.80;;
7166;SDS011;3625;51.762;14.320;2023-04-25T08:34:13;3.57;;;2.90;;
7166;SDS011;3625;51.762;14.320;2023-04-25T08:36:46;3.80;;;2.93;;
7166;SDS011;3625;51.762;14.320;2023-04-25T08:39:34;4.03;;;2.80;;
7166;SDS011;3625;51.762;14.320;2023-04-25T08:42:20;3.37;;;2.40;;
7166;SDS011;3625;51.762;14.320;2023-04-25T08:44:52;3.03;;;2.73;;
7166;SDS011;3625;51.762;14.320;2023-04-25T08:47:26;5.20;;;3.17;;
7166;SDS011;3625;51.762;14.320;2023-04-25T08:49:56;3.90;;;2.93;;
7166;SDS011;3625;51.762;14.320;2023-04-25T08:52:27;3.23;;;2.63;;
7166;SDS011;3625;51.762;14.320;2023-04-25T08:55:00;4.23;;;2.70;;
7166;SDS011;3625;51.762;14.320;2023-04-25T08:57:32;6.00;;;2.67;;
7166;SDS011;3625;51.762;14.320;2023-04-25T09:00:04;3.70;;;2.70;;
7166;SDS011;3625;51.762;14.320;2023-04-25T09:02:36;4.40;;;2.50;;
7166;SDS011;3625;51.762;14.320;2023-04-25T09:05:07;6.90;;;2.93;;
7166;SDS011;3625;51.762;14.320;2023-04-25T09:07:37;5.10;;;2.57;;
7166;SDS011;3625;51.762;14.320;2023-04-25T09:10:06;4.10;;;2.60;;
7166;SDS011;3625;51.762;14.320;2023-04-25T09:12:37;3.70;;;2.67;;
7166;SDS011;3625;51.762;14.320;2023-04-25T09:15:09;3.00;;;2.70;;
7166;SDS011;3625;51.762;14.320;2023-04-25T09:18:07;3.20;;;2.90;;
7166;SDS011;3625;51.762;14.320;2023-04-25T09:20:41;3.37;;;2.80;;
7166;SDS011;3625;51.762;14.320;2023-04-25T09:23:29;5.57;;;3.20;;
7166;SDS011;3625;51.762;14.320;2023-04-25T09:25:59;3.30;;;2.70;;
7166;SDS011;3625;51.762;14.320;2023-04-25T09:28:28;4.83;;;3.10;;
7166;SDS011;3625;51.762;14.320;2023-04-25T09:31:01;3.67;;;3.10;;
7166;SDS011;3625;51.762;14.320;2023-04-25T09:33:35;3.63;;;3.30;;
7166;SDS011;3625;51.762;14.320;2023-04-25T09:36:07;4.43;;;2.80;;
7166;SDS011;3625;51.762;14.320;2023-04-25T09:38:47;4.67;;;3.00;;
7166;SDS011;3625;51.762;14.320;2023-04-25T09:41:28;3.30;;;2.90;;
7166;SDS011;3625;51.762;14.320;2023-04-25T09:44:00;6.67;;;3.37;;
7166;SDS011;3625;51.762;14.320;2023-04-25T09:46:35;4.70;;;2.97;;
7166;SDS011;3625;51.762;14.320;2023-04-25T09:49:14;3.70;;;2.90;;
7166;SDS011;3625;51.762;14.320;2023-04-25T09:52:15;3.57;;;3.17;;
7166;SDS011;3625;51.762;14.320;2023-04-25T09:54:56;3.00;;;2.70;;
7166;SDS011;3625;51.762;14.320;2023-04-25T09:57:30;3.63;;;2.73;;
7166;SDS011;3625;51.762;14.320;2023-04-25T10:00:00;3.43;;;2.67;;
7166;SDS011;3625;51.762;14.320;2023-04-25T10:02:41;2.53;;;2.33;;
7166;SDS011;3625;51.762;14.320;2023-04-25T10:05:28;2.70;;;2.50;;
7166;SDS011;3625;51.762;14.320;2023-04-25T10:07:59;2.73;;;2.53;;
7166;SDS011;3625;51.762;14.320;2023-04-25T10:10:31;3.07;;;2.57;;
7166;SDS011;3625;51.762;14.320;2023-04-25T10:13:03;4.87;;;2.70;;
7166;SDS011;3625;51.762;14.320;2023-04-25T10:15:34;4.93;;;2.45;;
7166;SDS011;3625;51.762;14.320;2023-04-25T10:18:07;3.60;;;2.47;;
7166;SDS011;3625;51.762;14.320;2023-04-25T10:20:36;4.10;;;2.50;;
7166;SDS011;3625;51.762;14.320;2023-04-25T10:23:06;5.43;;;3.03;;
7166;SDS011;3625;51.762;14.320;2023-04-25T10:25:41;3.00;;;2.43;;
7166;SDS011;3625;51.762;14.320;2023-04-25T10:28:10;2.57;;;2.27;;
7166;SDS011;3625;51.762;14.320;2023-04-25T10:30:44;4.07;;;2.40;;
7166;SDS011;3625;51.762;14.320;2023-04-25T10:33:30;3.10;;;2.47;;
7166;SDS011;3625;51.762;14.320;2023-04-25T10:36:08;3.17;;;2.43;;
7166;SDS011;3625;51.762;14.320;2023-04-25T10:38:38;3.17;;;2.50;;
7166;SDS011;3625;51.762;14.320;2023-04-25T10:41:07;2.53;;;2.30;;
7166;SDS011;3625;51.762;14.320;2023-04-25T10:43:39;4.50;;;2.67;;
7166;SDS011;3625;51.762;14.320;2023-04-25T10:46:15;2.23;;;2.00;;
7166;SDS011;3625;51.762;14.320;2023-04-25T10:48:47;2.37;;;2.10;;
7166;SDS011;3625;51.762;14.320;2023-04-25T10:51:21;3.13;;;2.10;;
7166;SDS011;3625;51.762;14.320;2023-04-25T10:53:58;2.67;;;2.20;;
7166;SDS011;3625;51.762;14.320;2023-04-25T10:56:28;2.73;;;2.07;;
7166;SDS011;3625;51.762;14.320;2023-04-25T10:59:05;2.50;;;2.30;;
7166;SDS011;3625;51.762;14.320;2023-04-25T11:01:37;2.73;;;2.53;;
7166;SDS011;3625;51.762;14.320;2023-04-25T11:04:20;2.30;;;2.10;;
7166;SDS011;3625;51.762;14.320;2023-04-25T11:07:02;2.50;;;2.27;;
7166;SDS011;3625;51.762;14.320;2023-04-25T11:09:49;2.03;;;1.90;;
7166;SDS011;3625;51.762;14.320;2023-04-25T11:12:18;2.60;;;1.77;;
7166;SDS011;3625;51.762;14.320;2023-04-25T11:14:47;2.40;;;2.10;;
7166;SDS011;3625;51.762;14.320;2023-04-25T11:17:16;2.00;;;1.90;;
7166;SDS011;3625;51.762;14.320;2023-04-25T11:19:47;2.13;;;1.90;;
7166;SDS011;3625;51.762;14.320;2023-04-25T11:22:16;2.53;;;2.27;;
7166;SDS011;3625;51.762;14.320;2023-04-25T11:24:46;2.50;;;1.97;;
7166;SDS011;3625;51.762;14.320;2023-04-25T11:27:15;4.53;;;1.83;;
7166;SDS011;3625;51.762;14.320;2023-04-25T11:29:44;2.40;;;1.83;;
7166;SDS011;3625;51.762;14.320;2023-04-25T11:32:14;2.07;;;1.80;;
7166;SDS011;3625;51.762;14.320;2023-04-25T11:34:48;2.70;;;1.93;;
7166;SDS011;3625;51.762;14.320;2023-04-25T11:37:17;1.97;;;1.73;;
7166;SDS011;3625;51.762;14.320;2023-04-25T11:39:46;3.40;;;2.13;;
7166;SDS011;3625;51.762;14.320;2023-04-25T11:42:15;2.07;;;1.90;;
7166;SDS011;3625;51.762;14.320;2023-04-25T11:44:47;3.03;;;1.90;;
7166;SDS011;3625;51.762;14.320;2023-04-25T11:47:18;2.40;;;2.03;;
7166;SDS011;3625;51.762;14.320;2023-04-25T11:49:48;2.83;;;2.10;;
7166;SDS011;3625;51.762;14.320;2023-04-25T11:52:20;2.30;;;2.10;;
7166;SDS011;3625;51.762;14.320;2023-04-25T11:54:49;3.13;;;2.20;;
7166;SDS011;3625;51.762;14.320;2023-04-25T11:57:18;2.90;;;2.10;;
7166;SDS011;3625;51.762;14.320;2023-04-25T11:59:48;3.73;;;2.07;;
7166;SDS011;3625;51.762;14.320;2023-04-25T12:02:23;6.23;;;2.13;;
7166;SDS011;3625;51.762;14.320;2023-04-25T12:04:54;3.77;;;2.10;;
7166;SDS011;3625;51.762;14.320;2023-04-25T12:07:47;2.53;;;2.33;;
7166;SDS011;3625;51.762;14.320;2023-04-25T12:10:16;7.07;;;2.60;;
7166;SDS011;3625;51.762;14.320;2023-04-25T12:12:46;3.40;;;2.40;;
7166;SDS011;3625;51.762;14.320;2023-04-25T12:15:16;4.07;;;2.43;;
7166;SDS011;3625;51.762;14.320;2023-04-25T12:17:46;8.20;;;2.90;;
7166;SDS011;3625;51.762;14.320;2023-04-25T12:20:18;8.43;;;2.83;;
7166;SDS011;3625;51.762;14.320;2023-04-25T12:22:50;4.07;;;2.67;;
7166;SDS011;3625;51.762;14.320;2023-04-25T12:25:35;5.60;;;3.23;;
7166;SDS011;3625;51.762;14.320;2023-04-25T12:28:14;6.57;;;2.50;;
7166;SDS011;3625;51.762;14.320;2023-04-25T12:30:56;5.27;;;2.63;;
7166;SDS011;3625;51.762;14.320;2023-04-25T12:33:27;5.90;;;2.90;;
7166;SDS011;3625;51.762;14.320;2023-04-25T12:35:58;5.53;;;3.10;;
7166;SDS011;3625;51.762;14.320;2023-04-25T12:38:34;5.53;;;2.63;;
7166;SDS011;3625;51.762;14.320;2023-04-25T12:41:04;6.17;;;2.50;;
7166;SDS011;3625;51.762;14.320;2023-04-25T12:43:34;7.60;;;3.07;;
7166;SDS011;3625;51.762;14.320;2023-04-25T12:46:03;4.87;;;2.70;;
7166;SDS011;3625;51.762;14.320;2023-04-25T12:48:32;5.67;;;2.90;;
7166;SDS011;3625;51.762;14.320;2023-04-25T12:51:02;5.83;;;2.70;;
7166;SDS011;3625;51.762;14.320;2023-04-25T12:53:31;5.07;;;2.40;;
7166;SDS011;3625;51.762;14.320;2023-04-25T12:56:04;7.73;;;3.00;;
7166;SDS011;3625;51.762;14.320;2023-04-25T12:58:33;4.80;;;2.80;;
7166;SDS011;3625;51.762;14.320;2023-04-25T13:01:02;7.43;;;2.60;;
7166;SDS011;3625;51.762;14.320;2023-04-25T13:03:31;6.67;;;2.87;;
7166;SDS011;3625;51.762;14.320;2023-04-25T13:06:02;4.13;;;2.50;;
7166;SDS011;3625;51.762;14.320;2023-04-25T13:08:32;6.13;;;2.87;;
7166;SDS011;3625;51.762;14.320;2023-04-25T13:11:01;5.73;;;2.97;;
7166;SDS011;3625;51.762;14.320;2023-04-25T13:13:31;6.57;;;3.10;;
7166;SDS011;3625;51.762;14.320;2023-04-25T13:16:00;6.50;;;2.50;;
7166;SDS011;3625;51.762;14.320;2023-04-25T13:18:29;5.27;;;2.70;;
7166;SDS011;3625;51.762;14.320;2023-04-25T13:20:59;6.33;;;2.70;;
7166;SDS011;3625;51.762;14.320;2023-04-25T13:23:30;7.27;;;2.90;;
7166;SDS011;3625;51.762;14.320;2023-04-25T13:25:59;6.27;;;2.50;;
7166;SDS011;3625;51.762;14.320;2023-04-25T13:28:28;4.73;;;2.20;;
7166;SDS011;3625;51.762;14.320;2023-04-25T13:30:57;9.67;;;3.00;;
7166;SDS011;3625;51.762;14.320;2023-04-25T13:33:26;6.77;;;2.57;;
7166;SDS011;3625;51.762;14.320;2023-04-25T13:35:54;5.17;;;2.53;;
7166;SDS011;3625;51.762;14.320;2023-04-25T13:38:24;6.53;;;2.93;;
7166;SDS011;3625;51.762;14.320;2023-04-25T13:40:54;6.13;;;2.60;;
7166;SDS011;3625;51.762;14.320;2023-04-25T13:43:23;4.93;;;2.73;;
7166;SDS011;3625;51.762;14.320;2023-04-25T13:45:52;6.43;;;2.67;;
7166;SDS011;3625;51.762;14.320;2023-04-25T13:48:21;4.77;;;2.40;;
7166;SDS011;3625;51.762;14.320;2023-04-25T13:50:51;4.07;;;2.50;;
7166;SDS011;3625;51.762;14.320;2023-04-25T13:53:20;3.33;;;2.10;;
7166;SDS011;3625;51.762;14.320;2023-04-25T13:55:49;7.00;;;2.77;;
7166;SDS011;3625;51.762;14.320;2023-04-25T13:58:20;4.83;;;2.50;;
7166;SDS011;3625;51.762;14.320;2023-04-25T14:00:48;4.37;;;2.47;;
7166;SDS011;3625;51.762;14.320;2023-04-25T14:03:17;4.53;;;2.90;;
7166;SDS011;3625;51.762;14.320;2023-04-25T14:05:46;3.83;;;2.50;;
7166;SDS011;3625;51.762;14.320;2023-04-25T14:08:15;6.77;;;2.90;;
7166;SDS011;3625;51.762;14.320;2023-04-25T14:10:44;9.03;;;2.80;;
7166;SDS011;3625;51.762;14.320;2023-04-25T14:13:13;7.03;;;2.57;;
7166;SDS011;3625;51.762;14.320;2023-04-25T14:15:43;5.47;;;2.43;;
7166;SDS011;3625;51.762;14.320;2023-04-25T14:18:12;5.90;;;2.70;;
7166;SDS011;3625;51.762;14.320;2023-04-25T14:20:41;5.77;;;2.43;;
7166;SDS011;3625;51.762;14.320;2023-04-25T14:23:12;7.37;;;2.50;;
7166;SDS011;3625;51.762;14.320;2023-04-25T14:25:41;6.93;;;2.77;;
7166;SDS011;3625;51.762;14.320;2023-04-25T14:28:16;5.60;;;2.30;;
7166;SDS011;3625;51.762;14.320;2023-04-25T14:30:50;4.63;;;2.10;;
7166;SDS011;3625;51.762;14.320;2023-04-25T14:33:19;5.60;;;2.57;;
7166;SDS011;3625;51.762;14.320;2023-04-25T14:35:50;7.60;;;2.90;;
7166;SDS011;3625;51.762;14.320;2023-04-25T14:38:19;5.23;;;2.60;;
7166;SDS011;3625;51.762;14.320;2023-04-25T14:40:50;7.53;;;2.37;;
7166;SDS011;3625;51.762;14.320;2023-04-25T14:43:23;3.30;;;2.60;;
7166;SDS011;3625;51.762;14.320;2023-04-25T14:45:53;5.07;;;2.80;;
7166;SDS011;3625;51.762;14.320;2023-04-25T14:48:24;3.67;;;2.37;;
7166;SDS011;3625;51.762;14.320;2023-04-25T14:50:52;6.30;;;2.50;;
7166;SDS011;3625;51.762;14.320;2023-04-25T14:53:22;3.90;;;2.33;;
7166;SDS011;3625;51.762;14.320;2023-04-25T14:55:51;5.27;;;2.53;;
7166;SDS011;3625;51.762;14.320;2023-04-25T14:58:20;4.27;;;2.40;;
7166;SDS011;3625;51.762;14.320;2023-04-25T15:00:49;2.77;;;2.30;;
7166;SDS011;3625;51.762;14.320;2023-04-25T15:03:20;5.73;;;2.60;;
7166;SDS011;3625;51.762;14.320;2023-04-25T15:05:49;6.13;;;2.60;;
7166;SDS011;3625;51.762;14.320;2023-04-25T15:08:18;5.00;;;2.40;;
7166;SDS011;3625;51.762;14.320;2023-04-25T15:10:47;6.93;;;2.60;;
7166;SDS011;3625;51.762;14.320;2023-04-25T15:13:17;6.40;;;2.77;;
7166;SDS011;3625;51.762;14.320;2023-04-25T15:15:46;5.90;;;2.60;;
7166;SDS011;3625;51.762;14.320;2023-04-25T15:18:17;3.50;;;2.50;;
7166;SDS011;3625;51.762;14.320;2023-04-25T15:20:49;4.33;;;2.47;;
7166;SDS011;3625;51.762;14.320;2023-04-25T15:23:18;5.37;;;2.20;;
7166;SDS011;3625;51.762;14.320;2023-04-25T15:25:49;3.27;;;2.20;;
7166;SDS011;3625;51.762;14.320;2023-04-25T15:28:19;6.53;;;2.93;;
7166;SDS011;3625;51.762;14.320;2023-04-25T15:30:48;3.97;;;2.30;;
7166;SDS011;3625;51.762;14.320;2023-04-25T15:33:17;7.37;;;2.40;;